createdAt,value
2022-08-17T00:00:33.295Z,23.60
2022-08-17T00:05:42.200Z,24.35
2022-08-17T00:10:45.840Z,24.78
2022-08-17T00:15:48.727Z,25.17
2022-08-17T00:20:51.471Z,24.97
2022-08-17T00:25:55.100Z,25.07
2022-08-17T00:30:58.038Z,25.15
2022-08-17T00:36:01.740Z,25.33
2022-08-17T00:41:13.346Z,24.58
2022-08-17T00:46:29.635Z,23.96
2022-08-17T00:51:35.427Z,24.00
2022-08-17T00:56:44.686Z,23.75
2022-08-17T01:01:49.400Z,23.35
2022-08-17T01:06:53.102Z,23.72
2022-08-17T01:11:55.559Z,24.01
2022-08-17T01:17:00.273Z,23.77
2022-08-17T01:22:11.859Z,23.85
2022-08-17T01:27:16.315Z,24.52
2022-08-17T01:32:21.150Z,24.66
2022-08-17T01:37:32.586Z,24.77
2022-08-17T01:43:01.084Z,25.06
2022-08-17T01:48:03.888Z,24.96
2022-08-17T01:53:15.840Z,24.61
2022-08-17T01:58:19.293Z,25.05
2022-08-17T02:03:24.616Z,25.13
2022-08-17T02:08:37.147Z,24.92
2022-08-17T02:13:43.805Z,23.99
2022-08-17T02:18:46.676Z,23.74
2022-08-17T02:23:50.166Z,24.29
2022-08-17T02:28:53.617Z,23.99
2022-08-17T02:34:00.535Z,23.99
2022-08-17T02:39:09.708Z,24.36
2022-08-17T02:44:12.465Z,23.82
2022-08-17T02:49:15.851Z,24.48
2022-08-17T02:54:40.267Z,24.64
2022-08-17T02:59:43.315Z,24.66
2022-08-17T03:04:50.878Z,24.93
2022-08-17T03:09:54.039Z,24.64
2022-08-17T03:14:56.564Z,24.70
2022-08-17T03:19:59.462Z,23.18
2022-08-17T03:25:02.001Z,23.27
2022-08-17T03:30:07.583Z,23.92
2022-08-17T03:35:12.272Z,24.36
2022-08-17T03:40:15.805Z,23.83
2022-08-17T03:45:58.778Z,23.54
2022-08-17T03:51:20.200Z,23.54
2022-08-17T03:56:41.369Z,24.34
2022-08-17T04:01:46.083Z,24.48
2022-08-17T04:06:48.614Z,23.28
2022-08-17T04:11:51.046Z,22.62
2022-08-17T04:16:53.641Z,23.60
2022-08-17T04:21:57.884Z,24.38
2022-08-17T04:27:01.724Z,24.50
2022-08-17T04:32:04.601Z,22.92
2022-08-17T04:37:08.758Z,23.05
2022-08-17T04:42:17.299Z,23.44
2022-08-17T04:47:19.412Z,23.54
2022-08-17T04:52:32.289Z,22.61
2022-08-17T04:57:45.258Z,22.24
2022-08-17T05:02:50.101Z,22.96
2022-08-17T05:07:54.830Z,23.16
2022-08-17T05:13:01.508Z,23.32
2022-08-17T05:18:04.900Z,24.18
2022-08-17T05:23:10.639Z,24.61
2022-08-17T05:28:14.260Z,24.79
2022-08-17T05:33:21.922Z,24.90
2022-08-17T05:38:26.957Z,24.88
2022-08-17T05:43:32.332Z,24.78
2022-08-17T05:48:41.581Z,24.32
2022-08-17T05:53:54.012Z,24.62
2022-08-17T05:58:56.595Z,24.36
2022-08-17T06:04:31.400Z,24.07
2022-08-17T06:09:37.103Z,23.96
2022-08-17T06:14:51.484Z,23.77
2022-08-17T06:20:03.707Z,24.36
2022-08-17T06:25:16.314Z,24.96
2022-08-17T06:30:26.408Z,25.53
2022-08-17T06:36:09.337Z,25.40
2022-08-17T06:41:29.142Z,25.76
2022-08-17T06:46:43.498Z,25.01
2022-08-17T06:51:58.205Z,24.94
2022-08-17T06:57:10.800Z,25.94
2022-08-17T07:02:19.878Z,26.32
2022-08-17T07:07:53.588Z,26.76
2022-08-17T07:13:02.836Z,26.88
2022-08-17T07:18:05.411Z,26.68
2022-08-17T07:23:19.418Z,27.22
2022-08-17T07:28:26.263Z,27.35
2022-08-17T07:33:31.922Z,27.80
2022-08-17T07:38:35.679Z,28.36
2022-08-17T07:43:40.946Z,28.48
2022-08-17T07:48:46.564Z,28.88
2022-08-17T07:53:49.650Z,28.48
2022-08-17T07:59:11.229Z,27.89
2022-08-17T08:04:43.218Z,27.80
2022-08-17T08:10:01.489Z,27.62
2022-08-17T08:15:19.560Z,28.15
2022-08-17T08:21:00.448Z,28.36
2022-08-17T08:26:25.353Z,28.09
2022-08-17T08:31:58.168Z,27.78
2022-08-17T08:37:15.371Z,27.09
2022-08-17T08:42:32.986Z,26.81
2022-08-17T08:48:12.737Z,26.88
2022-08-17T08:53:32.193Z,26.99
2022-08-17T08:58:43.651Z,27.06
2022-08-17T09:03:54.916Z,27.15
2022-08-17T09:09:30.356Z,27.08
2022-08-17T09:14:54.552Z,27.10
2022-08-17T09:20:05.211Z,27.05
2022-08-17T09:25:10.178Z,27.10
2022-08-17T09:30:14.041Z,26.22
2022-08-17T09:35:37.130Z,25.91
2022-08-17T09:41:32.380Z,26.02
2022-08-17T09:46:53.770Z,25.82
2022-08-17T09:52:20.977Z,26.07
2022-08-17T09:57:42.457Z,25.97
2022-08-17T10:03:03.204Z,25.59
2022-08-17T10:08:27.770Z,25.85
2022-08-17T10:13:36.169Z,25.20
2022-08-17T10:19:09.973Z,25.51
2022-08-17T10:25:21.857Z,25.00
2022-08-17T10:30:16.089Z,25.16
2022-08-17T10:35:25.940Z,25.54
2022-08-17T10:40:50.399Z,25.35
2022-08-17T10:46:30.282Z,25.20
2022-08-17T10:51:38.128Z,25.10
2022-08-17T10:56:51.027Z,25.61
2022-08-17T11:02:19.568Z,25.93
2022-08-17T11:08:07.056Z,26.02
2022-08-17T11:13:12.217Z,25.47
2022-08-17T11:18:26.438Z,24.25
2022-08-17T11:24:13.004Z,23.86
2022-08-17T11:30:01.881Z,23.57
2022-08-17T11:35:23.342Z,23.70
2022-08-17T11:40:52.366Z,24.68
2022-08-17T11:46:14.814Z,24.94
2022-08-17T11:51:42.095Z,25.07
2022-08-17T11:56:50.536Z,25.04
2022-08-17T12:01:56.832Z,25.36
2022-08-17T12:07:05.404Z,24.82
2022-08-17T12:12:14.430Z,25.58
2022-08-17T12:17:29.582Z,26.21
2022-08-17T12:23:01.242Z,26.29
2022-08-17T12:28:20.004Z,26.19
2022-08-17T12:33:28.003Z,25.67
2022-08-17T12:38:34.753Z,25.42
2022-08-17T12:43:37.653Z,25.69
2022-08-17T12:48:40.192Z,25.82
2022-08-17T12:54:03.047Z,26.29
2022-08-17T12:59:07.232Z,26.73
2022-08-17T13:04:15.667Z,28.86
2022-08-17T13:09:33.530Z,31.22
2022-08-17T13:14:38.369Z,31.58
2022-08-17T13:19:49.815Z,32.38
2022-08-17T13:24:58.340Z,32.67
2022-08-17T13:30:11.692Z,33.35
2022-08-17T13:35:39.464Z,33.95
2022-08-17T13:40:50.342Z,35.36
2022-08-17T13:45:53.381Z,35.17
2022-08-17T13:50:55.382Z,35.21
2022-08-17T13:56:31.702Z,34.81
2022-08-17T14:01:39.269Z,35.62
2022-08-17T14:07:10.670Z,35.63
2022-08-17T14:12:17.446Z,34.39
2022-08-17T14:17:20.173Z,34.36
2022-08-17T14:22:32.244Z,35.02
2022-08-17T14:27:51.945Z,33.43
2022-08-17T14:32:56.500Z,32.44
2022-08-17T14:37:58.959Z,30.88
2022-08-17T14:43:01.515Z,30.54
2022-08-17T14:48:07.799Z,30.92
2022-08-17T14:53:12.367Z,30.58
2022-08-17T14:58:14.850Z,30.47
2022-08-17T15:03:18.750Z,30.18
2022-08-17T15:08:22.066Z,29.86
2022-08-17T15:13:27.301Z,29.22
2022-08-17T15:18:33.084Z,29.25
2022-08-17T15:23:36.299Z,29.27
2022-08-17T15:28:38.887Z,30.05
2022-08-17T15:33:41.868Z,30.66
2022-08-17T15:38:44.578Z,30.06
2022-08-17T15:43:50.230Z,29.65
2022-08-17T15:49:00.143Z,29.34
2022-08-17T15:54:18.723Z,28.80
2022-08-17T15:59:25.181Z,28.44
2022-08-17T16:04:31.031Z,28.27
2022-08-17T16:09:35.059Z,28.20
2022-08-17T16:14:37.825Z,28.13
2022-08-17T16:19:41.687Z,28.09
2022-08-17T16:24:56.753Z,27.99
2022-08-17T16:30:01.078Z,27.93
2022-08-17T16:35:07.408Z,27.92
2022-08-17T16:40:11.654Z,27.93
2022-08-17T16:45:18.630Z,27.86
2022-08-17T16:50:23.579Z,27.82
2022-08-17T16:55:26.396Z,27.72
2022-08-17T17:00:30.127Z,27.61
2022-08-17T17:05:58.106Z,27.60
2022-08-17T17:11:09.289Z,27.68
2022-08-17T17:16:34.661Z,27.63
2022-08-17T17:22:00.114Z,27.66
2022-08-17T17:27:39.148Z,27.56
2022-08-17T17:32:56.010Z,27.58
2022-08-17T17:38:03.513Z,27.34
2022-08-17T17:43:36.872Z,27.23
2022-08-17T17:48:34.227Z,27.40
2022-08-17T17:53:44.967Z,27.01
2022-08-17T17:59:12.534Z,26.90
2022-08-17T18:04:41.442Z,27.22
2022-08-17T18:10:02.719Z,27.31
2022-08-17T18:15:08.289Z,27.25
2022-08-17T18:20:10.929Z,26.89
2022-08-17T18:25:39.570Z,27.01
2022-08-17T18:30:42.228Z,27.17
2022-08-17T18:35:58.562Z,27.18
2022-08-17T18:41:30.533Z,27.15
2022-08-17T18:46:37.945Z,27.18
2022-08-17T18:51:43.417Z,27.15
2022-08-17T18:56:59.898Z,27.13
2022-08-17T19:02:36.042Z,27.13
2022-08-17T19:07:50.593Z,27.17
2022-08-17T19:13:00.810Z,27.14
2022-08-17T19:18:15.679Z,27.09
2022-08-17T19:23:58.998Z,27.14
2022-08-17T19:29:22.193Z,26.97
2022-08-17T19:34:30.329Z,26.59
2022-08-17T19:40:09.408Z,26.43
2022-08-17T19:45:12.236Z,26.47
2022-08-17T19:50:45.937Z,26.76
2022-08-17T19:56:11.519Z,26.75
2022-08-17T20:01:40.997Z,25.87
2022-08-17T20:06:49.399Z,25.66
2022-08-17T20:11:58.948Z,26.31
2022-08-17T20:17:04.654Z,26.48
2022-08-17T20:22:18.145Z,26.10
2022-08-17T20:27:31.755Z,26.42
2022-08-17T20:32:55.298Z,26.49
2022-08-17T20:38:02.768Z,26.45
2022-08-17T20:43:29.627Z,26.42
2022-08-17T20:48:48.369Z,25.84
2022-08-17T20:53:51.468Z,25.31
2022-08-17T20:58:53.931Z,24.82
2022-08-17T21:03:57.447Z,25.26
2022-08-17T21:09:28.633Z,25.94
2022-08-17T21:14:34.202Z,26.20
2022-08-17T21:20:00.227Z,26.16
2022-08-17T21:25:03.049Z,26.24
2022-08-17T21:30:21.093Z,26.23
2022-08-17T21:35:44.683Z,26.37
2022-08-17T21:40:52.820Z,26.43
2022-08-17T21:46:00.638Z,26.15
2022-08-17T21:51:10.537Z,25.69
2022-08-17T21:56:20.965Z,25.00
2022-08-17T22:01:34.584Z,24.76
2022-08-17T22:06:55.834Z,24.49
2022-08-17T22:12:01.387Z,23.71
2022-08-17T22:17:17.168Z,23.28
2022-08-17T22:22:58.531Z,22.84
2022-08-17T22:28:04.340Z,22.28
2022-08-17T22:33:38.101Z,22.00
2022-08-17T22:38:43.624Z,21.66
2022-08-17T22:43:46.421Z,21.36
2022-08-17T22:48:59.947Z,21.44
2022-08-17T22:54:35.093Z,21.43
2022-08-17T22:59:43.821Z,21.42
2022-08-17T23:04:59.362Z,21.31
2022-08-17T23:10:06.556Z,21.18
2022-08-17T23:15:17.731Z,21.01
2022-08-17T23:20:20.695Z,21.23
2022-08-17T23:25:28.168Z,21.10
2022-08-17T23:30:33.685Z,21.16
2022-08-17T23:35:39.721Z,21.09
2022-08-17T23:40:43.248Z,20.89
2022-08-17T23:45:46.141Z,20.84
2022-08-17T23:50:51.728Z,20.81
2022-08-17T23:56:03.894Z,20.86
